createdAt,value
2023-03-22T00:01:53.824Z,0.30
2023-03-22T00:06:56.369Z,0.45
2023-03-22T00:11:58.897Z,0.80
2023-03-22T00:17:01.449Z,0.95
2023-03-22T00:22:06.347Z,0.57
2023-03-22T00:27:08.963Z,1.05
2023-03-22T00:32:12.095Z,1.77
2023-03-22T00:37:16.568Z,2.55
2023-03-22T00:42:19.193Z,1.27
2023-03-22T00:47:24.145Z,0.57
2023-03-22T00:52:28.888Z,1.08
2023-03-22T00:57:32.465Z,1.48
2023-03-22T01:02:35.251Z,0.35
2023-03-22T01:07:39.672Z,1.90
2023-03-22T01:12:42.268Z,1.95
2023-03-22T01:17:44.885Z,0.32
2023-03-22T01:22:47.706Z,1.70
2023-03-22T01:27:51.327Z,0.70
2023-03-22T01:38:12.580Z,1.52
2023-03-22T01:43:41.830Z,13.80
2023-03-22T01:48:49.165Z,9.57
2023-03-22T02:15:23.815Z,40.42
2023-03-22T02:21:37.997Z,22.23
2023-03-22T02:27:04.947Z,3.35
2023-03-22T02:32:57.382Z,2.63
2023-03-22T02:38:22.527Z,0.52
2023-03-22T02:43:59.579Z,2.75
2023-03-22T02:49:16.064Z,0.70
2023-03-22T02:54:35.436Z,0.68
2023-03-22T02:59:48.305Z,1.13
2023-03-22T03:05:02.230Z,1.00
2023-03-22T03:10:10.159Z,2.10
2023-03-22T03:15:24.122Z,3.60
2023-03-22T03:20:45.921Z,0.85
2023-03-22T03:26:57.368Z,5.90
2023-03-22T03:32:33.398Z,0.55
2023-03-22T03:38:01.738Z,1.30
2023-03-22T03:43:24.356Z,5.28
2023-03-22T03:48:40.487Z,1.90
2023-03-22T03:53:52.457Z,3.33
2023-03-22T03:59:01.627Z,4.45
2023-03-22T04:04:09.841Z,1.25
2023-03-22T04:09:39.696Z,1.20
2023-03-22T04:15:15.447Z,1.50
2023-03-22T04:20:22.998Z,1.60
2023-03-22T04:25:32.212Z,1.73
2023-03-22T04:30:47.242Z,1.70
2023-03-22T04:36:16.415Z,2.55
2023-03-22T04:41:59.538Z,4.22
2023-03-22T04:47:12.523Z,3.42
2023-03-22T04:52:51.404Z,0.90
2023-03-22T04:58:05.118Z,4.00
2023-03-22T05:03:11.363Z,1.80
2023-03-22T05:08:32.589Z,4.93
2023-03-22T05:13:54.382Z,2.60
2023-03-22T05:18:58.824Z,1.73
2023-03-22T05:24:02.912Z,1.67
2023-03-22T05:34:59.166Z,2.58
2023-03-22T05:40:16.040Z,4.15
2023-03-22T05:45:34.023Z,5.93
2023-03-22T05:56:26.583Z,4.85
2023-03-22T06:01:39.750Z,3.15
2023-03-22T06:07:10.534Z,3.50
2023-03-22T06:12:34.700Z,2.85
2023-03-22T06:23:06.803Z,8.00
2023-03-22T06:28:16.630Z,7.57
2023-03-22T06:33:31.306Z,5.07
2023-03-22T06:38:42.728Z,6.55
2023-03-22T06:43:59.661Z,3.65
2023-03-22T06:49:43.574Z,4.00
2023-03-22T06:55:09.970Z,2.17
2023-03-22T07:00:17.440Z,3.00
2023-03-22T07:05:31.457Z,2.17
2023-03-22T07:10:41.072Z,1.88
2023-03-22T07:15:48.124Z,1.73
2023-03-22T07:21:12.210Z,2.88
2023-03-22T07:26:20.801Z,2.25
2023-03-22T07:31:44.781Z,1.73
2023-03-22T07:36:55.716Z,1.77
2023-03-22T07:42:05.911Z,3.65
2023-03-22T07:47:40.271Z,2.58
2023-03-22T07:53:12.567Z,1.42
2023-03-22T07:58:18.480Z,1.23
2023-03-22T08:03:22.471Z,1.83
2023-03-22T08:08:39.520Z,1.75
2023-03-22T08:14:02.791Z,1.05
2023-03-22T08:24:20.944Z,1.40
2023-03-22T08:29:47.395Z,4.30
2023-03-22T08:34:51.486Z,2.17
2023-03-22T08:39:55.320Z,2.60
2023-03-22T08:45:08.629Z,2.03
2023-03-22T08:50:16.185Z,4.88
2023-03-22T08:55:32.059Z,5.50
2023-03-22T09:01:16.196Z,2.72
2023-03-22T09:06:32.176Z,1.83
2023-03-22T09:11:40.896Z,4.28
2023-03-22T09:16:46.388Z,3.40
2023-03-22T09:21:57.290Z,1.77
2023-03-22T09:27:14.231Z,1.50
2023-03-22T09:32:23.086Z,3.40
2023-03-22T09:37:35.955Z,4.18
2023-03-22T09:42:54.598Z,1.77
2023-03-22T09:48:01.537Z,3.97
2023-03-22T09:53:15.259Z,2.92
2023-03-22T09:58:48.841Z,2.78
2023-03-22T10:04:38.072Z,2.55
2023-03-22T10:10:20.473Z,1.73
2023-03-22T10:15:39.564Z,2.35
2023-03-22T10:21:14.193Z,2.53
2023-03-22T10:26:55.011Z,3.05
2023-03-22T10:32:26.184Z,8.23
2023-03-22T10:37:45.479Z,4.40
2023-03-22T10:43:03.698Z,3.63
2023-03-22T10:48:19.665Z,3.05
2023-03-22T10:53:54.223Z,5.90
2023-03-22T10:58:58.898Z,3.95
2023-03-22T11:04:16.531Z,6.07
2023-03-22T11:09:26.390Z,7.05
2023-03-22T11:14:47.336Z,8.27
2023-03-22T11:20:29.929Z,6.22
2023-03-22T11:25:46.168Z,10.10
2023-03-22T11:31:20.117Z,7.03
2023-03-22T11:36:44.963Z,7.07
2023-03-22T11:41:57.120Z,10.85
2023-03-22T11:47:05.286Z,8.57
2023-03-22T11:52:31.964Z,6.40
2023-03-22T12:03:21.718Z,7.32
2023-03-22T12:09:23.291Z,5.00
2023-03-22T12:14:45.568Z,6.22
2023-03-22T12:20:36.121Z,6.85
2023-03-22T12:25:41.138Z,8.02
2023-03-22T12:30:57.997Z,10.95
2023-03-22T12:36:12.944Z,6.05
2023-03-22T12:41:40.716Z,7.10
2023-03-22T12:47:10.649Z,5.60
2023-03-22T12:52:45.775Z,5.70
2023-03-22T12:58:07.971Z,7.40
2023-03-22T13:03:40.859Z,6.10
2023-03-22T13:09:18.412Z,7.25
2023-03-22T13:15:31.653Z,5.80
2023-03-22T13:21:21.770Z,6.25
2023-03-22T13:26:52.395Z,9.73
2023-03-22T13:32:00.657Z,8.10
2023-03-22T13:37:27.406Z,11.85
2023-03-22T13:50:28.876Z,14.68
2023-03-22T13:56:15.426Z,12.77
2023-03-22T14:02:27.901Z,14.50
2023-03-22T14:07:47.129Z,14.10
2023-03-22T14:13:19.220Z,15.50
2023-03-22T14:18:31.867Z,17.05
